Latest Weather Observations for Redcliffe

IDQ60801

Issued at 6:32 am EST Saturday 28 March 2015 (issued every 30 minutes, with the page automatically refreshed every 10 minutes)

About weather observations | Map of weather stations | Latest weather observations for QLD | Other Formats
Station Details ID: 040958 Name: REDCLIFFE Lat: -27.22 Lon: 153.09 Height: 12.6 m
Data from the previous 72 hours. | See also: Recent months at Redcliffe
Date/Time
EST
Temp
°C
App
Temp
°C
Dew
Point
Rel
Hum
%
Delta-T
°C
Wind Press
QNH
hPa
Press
MSL
hPa
Rain
since 9 am
mm
Dir
 
Spd
km/h
Gust
km/h
Spd
kts
Gust
kts
28/06:30am 23.9 23.1 20.0 79 2.5 S 24 30 13 16 1019.0 1018.9 0.0
28/06:00am 24.0 24.6 20.3 80 2.4 ESE 17 22 9 12 1018.7 1018.6 0.0
28/05:30am 23.8 23.9 20.3 81 2.3 SSE 20 26 11 14 1018.5 1018.4 0.0
28/05:00am 23.7 22.9 20.0 80 2.4 SSE 24 28 13 15 1018.3 1018.2 0.0
28/04:30am 23.8 23.7 19.9 79 2.5 SSE 20 24 11 13 1018.0 1017.9 0.0
28/04:00am 24.2 24.1 19.9 77 2.8 SE 20 24 11 13 1017.9 1017.8 0.0
28/03:30am 24.8 24.5 19.6 73 3.3 SE 20 26 11 14 1017.6 1017.5 0.0
28/03:00am 24.7 24.5 19.8 74 3.2 SE 20 22 11 12 1017.5 1017.4 0.0
28/02:30am 24.9 24.9 19.7 73 3.4 SE 19 20 10 11 1017.7 1017.6 0.0
28/02:00am 24.9 25.0 19.9 74 3.2 SE 19 22 10 12 1017.7 1017.6 0.0
28/01:30am 24.8 24.8 19.8 74 3.2 SE 19 24 10 13 1017.8 1017.7 0.0
28/01:00am 24.8 24.8 19.8 74 3.2 SE 19 24 10 13 1018.1 1018.0 0.0
28/12:30am 25.0 25.3 20.3 75 3.1 ESE 19 24 10 13 1018.1 1018.0 0.0
 
Date/Time
EST
Temp
°C
App
Temp
°C
Dew
Point
Rel
Hum
%
Delta-T
°C
Wind Press
QNH
hPa
Press
MSL
hPa
Rain
since 9 am
mm
Dir
 
Spd
km/h
Gust
km/h
Spd
kts
Gust
kts
27/11:30pm 25.2 25.4 20.2 74 3.3 ESE 19 24 10 13 1018.5 1018.4 0.0
27/11:00pm 25.4 25.4 20.2 73 3.4 ESE 20 26 11 14 1018.6 1018.5 0.0
27/10:30pm 25.4 25.3 20.0 72 3.5 ESE 20 24 11 13 1019.0 1018.9 0.0
27/10:00pm 25.5 25.6 20.3 73 3.4 ESE 20 26 11 14 1019.1 1019.0 0.0
27/09:30pm 25.6 25.2 20.2 72 3.5 ESE 22 26 12 14 1018.9 1018.8 0.0
27/09:00pm 25.6 25.0 20.4 73 3.4 E 24 28 13 15 1018.9 1018.8 0.0
27/08:30pm 25.7 24.1 20.0 71 3.7 ESE 28 30 15 16 1018.9 1018.8 0.0
27/08:00pm 25.8 25.2 20.6 73 3.4 E 24 28 13 15 1018.8 1018.7 0.0
27/07:30pm 25.7 25.6 21.4 77 2.9 ESE 24 30 13 16 1018.5 1018.4 0.0
27/07:00pm 25.8 25.1 21.0 75 3.2 SE 26 30 14 16 1018.2 1018.1 0.0
27/06:30pm 25.9 24.3 20.7 73 3.4 SE 30 33 16 18 1017.6 1017.5 0.0
27/06:00pm 25.9 24.6 20.7 73 3.4 SE 28 35 15 19 1017.3 1017.2 0.0
27/05:30pm 26.1 24.5 20.7 72 3.5 SE 30 33 16 18 1017.1 1017.0 0.0
27/05:00pm 26.2 24.1 19.8 68 4.1 SE 30 33 16 18 1016.8 1016.7 0.0
27/04:30pm 26.8 25.3 20.2 67 4.3 SE 28 33 15 18 1016.4 1016.3 0.0
27/04:00pm 27.3 25.6 19.9 64 4.8 SE 28 32 15 17 1016.2 1016.1 0.0
27/03:30pm 27.3 25.9 20.4 66 4.5 ESE 28 32 15 17 1016.0 1015.9 0.0
27/03:00pm 27.5 26.4 20.3 65 4.7 SE 26 32 14 17 1015.9 1015.8 0.0
27/02:30pm 27.2 25.7 20.3 66 4.5 SE 28 32 15 17 1015.9 1015.8 0.0
27/02:00pm 27.6 26.8 20.9 67 4.4 SE 26 32 14 17 1016.1 1016.0 0.0
27/01:30pm 27.7 27.5 21.3 68 4.3 ESE 24 30 13 16 1016.4 1016.3 0.0
27/01:00pm 28.7 29.6 21.5 65 4.8 ESE 19 22 10 12 1016.7 1016.6 0.0
27/12:30pm 28.5 29.3 21.3 65 4.8 E 19 22 10 12 1017.0 1016.9 0.0
27/12:00pm 28.9 31.1 21.9 66 4.7 E 13 15 7 8 1017.4 1017.3 0.0
27/11:30am 29.1 30.8 21.6 64 5.0 E 15 17 8 9 1017.8 1017.7 0.0
27/11:00am 30.4 30.9 17.5 46 8.2 E 11 17 6 9 1018.1 1018.0 0.0
27/10:30am 29.1 29.0 17.0 48 7.6 SE 13 24 7 13 1018.5 1018.4 0.0
27/10:00am 28.9 31.2 20.6 61 5.5 NW 9 13 5 7 1018.6 1018.5 0.0
27/09:30am 28.1 30.2 20.1 62 5.2 WNW 9 15 5 8 1018.7 1018.6 0.0
27/09:00am 26.7 28.2 20.5 69 4.1 WNW 13 17 7 9 1018.8 1018.7 0.0
27/08:30am 25.8 27.5 21.0 75 3.2 NW 13 15 7 8 1018.7 1018.6 0.0
27/08:00am 25.4 27.2 21.1 77 2.8 NNW 13 17 7 9 1018.5 1018.4 0.0
27/07:30am 24.3 26.3 20.8 81 2.3 NNW 11 15 6 8 1018.2 1018.1 0.0
27/07:00am 24.2 26.4 21.1 83 2.0 NNW 11 15 6 8 1017.9 1017.8 0.0
27/06:30am 24.0 26.2 21.1 84 1.9 NNW 11 13 6 7 1017.5 1017.4 0.0
27/06:00am 23.6 25.7 20.9 85 1.8 NNW 11 13 6 7 1017.2 1017.1 0.0
27/05:30am 23.6 25.7 20.9 85 1.8 NNW 11 15 6 8 1016.9 1016.8 0.0
27/05:00am 23.9 26.0 21.0 84 1.9 NNW 11 17 6 9 1016.7 1016.6 0.0
27/04:30am 24.3 26.2 21.4 84 1.9 NNW 13 19 7 10 1016.5 1016.4 0.0
27/04:00am 24.5 27.3 21.6 84 1.9 NNW 9 13 5 7 1016.3 1016.2 0.0
27/03:30am 24.6 27.1 21.7 84 1.9 NNW 11 13 6 7 1016.3 1016.2 0.0
27/03:00am 24.7 27.6 21.8 84 1.9 NNW 9 11 5 6 1016.3 1016.2 0.0
27/02:30am 24.6 27.5 21.7 84 1.9 NNW 9 11 5 6 1016.3 1016.2 0.0
27/02:00am 24.7 27.5 21.6 83 2.1 NNW 9 11 5 6 1016.5 1016.4 0.0
27/01:30am 24.7 27.5 21.6 83 2.1 NW 9 11 5 6 1016.8 1016.7 0.0
27/01:00am 24.9 27.4 21.8 83 2.1 NNW 11 15 6 8 1017.1 1017.0 0.0
27/12:30am 25.2 27.0 21.9 82 2.2 N 15 20 8 11 1017.1 1017.0 0.0
27/12:00am 25.4 27.3 22.1 82 2.2 N 15 19 8 10 1017.3 1017.2 0.0
 
Date/Time
EST
Temp
°C
App
Temp
°C
Dew
Point
Rel
Hum
%
Delta-T
°C
Wind Press
QNH
hPa
Press
MSL
hPa
Rain
since 9 am
mm
Dir
 
Spd
km/h
Gust
km/h
Spd
kts
Gust
kts
26/11:30pm 25.4 28.1 22.1 82 2.2 NNW 11 15 6 8 1017.6 1017.5 0.0
26/11:00pm 25.4 27.7 22.1 82 2.2 N 13 15 7 8 1017.6 1017.5 0.0
26/10:30pm 26.0 27.6 22.1 79 2.6 N 17 26 9 14 1017.8 1017.7 0.0
26/10:00pm 26.1 27.2 22.4 80 2.5 N 20 28 11 15 1017.9 1017.8 0.0
26/09:30pm 26.1 26.9 22.4 80 2.5 N 22 26 12 14 1017.8 1017.7 0.0
26/09:00pm 26.1 27.2 22.4 80 2.5 N 20 28 11 15 1017.9 1017.8 0.0
26/08:30pm 26.1 27.1 22.2 79 2.6 N 20 26 11 14 1017.7 1017.6 0.0
26/08:00pm 26.2 27.9 22.3 79 2.6 N 17 26 9 14 1017.6 1017.5 0.0
26/07:30pm 26.2 25.7 22.1 78 2.7 NNE 28 33 15 18 1017.0 1016.9 0.0
26/07:00pm 26.3 26.8 21.9 77 2.9 N 22 30 12 16 1016.9 1016.8 0.0
26/06:30pm 26.3 27.2 21.9 77 2.9 N 20 28 11 15 1016.6 1016.5 0.0
26/06:00pm 26.6 25.8 21.6 74 3.3 N 28 32 15 17 1016.9 1016.8 0.0
26/05:30pm 26.8 25.8 21.3 72 3.7 NNE 28 33 15 18 1016.0 1015.9 0.0
26/05:00pm 27.1 25.2 20.9 69 4.1 NNE 32 35 17 19 1015.1 1015.0 0.0
26/04:30pm 27.7 25.7 20.8 66 4.6 NNE 32 37 17 20 1015.0 1014.9 0.0
26/04:00pm 28.0 25.4 20.6 64 4.9 NE 35 39 19 21 1014.6 1014.5 0.0
26/03:30pm 28.3 26.0 20.6 63 5.1 NE 33 37 18 20 1015.1 1015.0 0.0
26/03:00pm 28.5 26.3 20.8 63 5.1 NE 33 37 18 20 1015.1 1015.0 0.0
26/02:30pm 28.5 26.4 21.0 64 5.0 NE 33 37 18 20 1015.3 1015.2 0.0
26/02:00pm 28.6 26.0 19.5 58 5.9 NE 32 35 17 19 1015.7 1015.6 0.0
26/01:30pm 29.2 26.8 19.2 54 6.5 NE 30 33 16 18 1016.1 1016.0 0.0
26/01:00pm 30.2 29.1 21.8 60 5.7 NE 30 32 16 17 1016.5 1016.4 0.0
26/12:30pm 28.4 27.4 21.2 65 4.8 NE 28 30 15 16 1017.0 1016.9 0.0
26/12:00pm 29.2 29.5 22.2 66 4.7 NE 24 30 13 16 1017.4 1017.3 0.0
26/11:30am 29.3 30.5 21.5 63 5.2 NNE 17 20 9 11 1017.6 1017.5 0.0
26/11:00am 29.7 32.4 22.9 67 4.6 NNE 13 15 7 8 1018.1 1018.0 0.0
26/10:30am 28.5 28.9 21.0 64 5.0 NNE 20 24 11 13 1018.3 1018.2 0.0
26/10:00am 28.1 28.1 21.6 68 4.3 NNE 24 28 13 15 1018.5 1018.4 0.0
26/09:30am 27.8 27.4 20.9 66 4.6 N 24 26 13 14 1018.5 1018.4 0.0
26/09:00am 27.2 28.0 21.7 72 3.7 N 20 26 11 14 1018.4 1018.3 0.0
26/08:30am 26.4 27.7 21.6 75 3.2 N 17 24 9 13 1018.4 1018.3 0.0
26/08:00am 26.0 26.2 21.4 76 3.0 N 22 28 12 15 1018.1 1018.0 0.0
26/07:30am 25.6 27.0 21.9 80 2.5 N 17 24 9 13 1017.8 1017.7 0.0
26/07:00am 25.5 27.9 22.2 82 2.2 NNW 13 19 7 10 1017.5 1017.4 0.0
26/06:30am 25.2 27.0 21.9 82 2.2 N 15 19 8 10 1017.2 1017.1 0.0
26/06:00am 25.4 27.2 21.9 81 2.3 NNW 15 22 8 12 1017.2 1017.1 0.0
26/05:30am 24.9 26.3 21.8 83 2.1 N 17 24 9 13 1016.6 1016.5 0.0
26/05:00am 24.9 27.3 21.6 82 2.2 N 11 15 6 8 1016.4 1016.3 0.0
26/04:30am 24.9 26.9 21.6 82 2.2 NNW 13 15 7 8 1016.1 1016.0 0.0
26/04:00am 25.1 25.7 21.4 80 2.4 N 20 26 11 14 1015.9 1015.8 0.0
26/03:30am 25.4 24.4 21.3 78 2.7 NNE 28 30 15 16 1015.5 1015.4 0.0
26/03:00am 25.5 24.9 21.2 77 2.8 NNE 26 30 14 16 1015.3 1015.2 0.0
26/02:30am 25.7 25.8 21.1 76 3.0 NNE 22 26 12 14 1015.5 1015.4 0.0
26/02:00am 25.9 26.8 20.9 74 3.3 NNE 17 19 9 10 1015.7 1015.6 0.0
26/01:30am 25.9 27.0 21.3 76 3.0 NNE 17 19 9 10 1015.7 1015.6 0.0
26/01:00am 25.9 28.1 21.8 78 2.7 NE 13 15 7 8 1015.9 1015.8 0.0
26/12:30am 25.9 28.1 21.8 78 2.7 NE 13 13 7 7 1016.1 1016.0 0.0
26/12:00am 26.0 28.7 22.1 79 2.6 NNE 11 11 6 6 1016.0 1015.9 0.0
 
Date/Time
EST
Temp
°C
App
Temp
°C
Dew
Point
Rel
Hum
%
Delta-T
°C
Wind Press
QNH
hPa
Press
MSL
hPa
Rain
since 9 am
mm
Dir
 
Spd
km/h
Gust
km/h
Spd
kts
Gust
kts
25/11:30pm 26.1 29.4 22.6 81 2.4 NE 9 13 5 7 1016.0 1015.9 0.0
25/11:00pm 26.1 28.8 22.8 82 2.2 ENE 13 17 7 9 1016.1 1016.0 0.0
25/10:30pm 26.1 31.2 22.6 81 2.4 CALM 0 2 0 1 1016.5 1016.4 0.0
25/10:00pm 26.1 28.7 22.6 81 2.4 N 13 19 7 10 1016.3 1016.2 0.0
25/09:30pm 26.2 27.1 22.7 81 2.4 N 22 28 12 15 1016.1 1016.0 0.0
25/09:00pm 26.1 27.2 22.4 80 2.5 N 20 26 11 14 1016.0 1015.9 0.0
25/08:30pm 26.2 26.6 22.5 80 2.5 NNE 24 32 13 17 1015.5 1015.4 0.0
25/08:00pm 26.3 25.9 22.4 79 2.6 NNE 28 32 15 17 1015.4 1015.3 0.0
25/07:30pm 26.3 25.9 22.4 79 2.6 N 28 30 15 16 1015.2 1015.1 0.0
25/07:00pm 26.4 26.7 22.3 78 2.8 NNE 24 28 13 15 1014.6 1014.5 0.0
25/06:30pm 26.5 26.4 22.3 78 2.8 NNE 26 32 14 17 1014.4 1014.3 0.0
25/06:00pm 26.6 25.4 22.2 77 3.0 NNE 32 35 17 19 1014.0 1013.9 0.0
25/05:30pm 26.9 26.0 22.1 75 3.2 NNE 30 33 16 18 1013.8 1013.7 0.0
25/05:00pm 27.4 26.2 22.3 73 3.4 NNE 32 35 17 19 1013.4 1013.3 0.0
25/04:30pm 27.7 26.7 22.0 71 3.8 NNE 30 35 16 19 1013.3 1013.2 0.0
25/04:00pm 28.0 26.6 22.0 70 4.0 NNE 32 37 17 20 1013.0 1012.9 0.0
25/03:30pm 28.4 27.0 21.9 68 4.4 NE 32 35 17 19 1013.1 1013.0 0.0
25/03:00pm 28.3 26.7 21.8 68 4.4 NE 33 37 18 20 1013.1 1013.0 0.0
25/02:30pm 28.4 27.3 21.7 67 4.5 NE 30 37 16 20 1013.0 1012.9 0.0
25/02:00pm 28.6 27.3 22.1 68 4.4 NE 32 37 17 20 1013.1 1013.0 0.0
25/01:30pm 28.9 27.9 21.9 66 4.7 NE 30 35 16 19 1013.3 1013.2 0.0
25/01:00pm 29.2 27.8 21.9 64 4.9 NE 32 35 17 19 1013.5 1013.4 0.0
25/12:30pm 29.3 27.9 22.0 64 4.9 NE 32 33 17 18 1013.8 1013.7 0.0
25/12:00pm 29.3 29.7 20.7 59 5.7 NE 19 28 10 15 1014.3 1014.2 0.0
25/11:30am 28.7 30.2 21.2 64 5.0 NNE 15 17 8 9 1014.8 1014.7 0.0
25/11:00am 28.2 28.9 20.5 63 5.1 NNE 17 17 9 9 1015.2 1015.1 0.0
25/10:30am 27.9 29.1 20.7 65 4.8 NNE 15 19 8 10 1015.5 1015.4 0.0
25/10:00am 26.6 26.7 20.0 67 4.3 NNE 19 20 10 11 1015.7 1015.6 0.0
25/09:30am 26.7 27.4 20.5 69 4.1 NNE 17 24 9 13 1015.8 1015.7 0.0
25/09:00am 26.4 28.0 20.0 68 4.2 N 11 15 6 8 1015.8 1015.7 0.0
25/08:30am 25.1 25.6 20.1 74 3.2 N 17 20 9 11 1015.9 1015.8 0.0
25/08:00am 25.1 26.3 20.6 76 2.9 N 15 19 8 10 1015.5 1015.4 0.0
25/07:30am 24.6 24.9 20.5 78 2.7 N 19 24 10 13 1015.3 1015.2 0.0
25/07:00am 24.0 25.6 20.7 82 2.2 NNW 13 17 7 9 1015.1 1015.0 0.0

Other Formats:

Comma delimited format used in spreadsheet applications
http://www.bom.gov.au/fwo/IDQ60801/IDQ60801.95591.axf

JavaScript Object Notation format (JSON) in row-major order
http://www.bom.gov.au/fwo/IDQ60801/IDQ60801.95591.json